sensor_id;sensor_type;location;lat;lon;timestamp;P1;durP1;ratioP1;P2;durP2;ratioP2
76786;SDS011;65739;51.482;5.702;2023-04-08T00:00:16;33.40;;;15.38;;
76786;SDS011;65739;51.482;5.702;2023-04-08T00:02:42;35.92;;;14.63;;
76786;SDS011;65739;51.482;5.702;2023-04-08T00:05:07;35.63;;;15.35;;
76786;SDS011;65739;51.482;5.702;2023-04-08T00:07:33;31.00;;;15.07;;
76786;SDS011;65739;51.482;5.702;2023-04-08T00:09:59;30.45;;;14.60;;
76786;SDS011;65739;51.482;5.702;2023-04-08T00:12:25;34.50;;;14.70;;
76786;SDS011;65739;51.482;5.702;2023-04-08T00:14:50;33.55;;;15.18;;
76786;SDS011;65739;51.482;5.702;2023-04-08T00:17:16;25.95;;;14.13;;
76786;SDS011;65739;51.482;5.702;2023-04-08T00:19:42;39.10;;;15.45;;
76786;SDS011;65739;51.482;5.702;2023-04-08T00:22:08;30.50;;;14.85;;
76786;SDS011;65739;51.482;5.702;2023-04-08T00:24:34;34.47;;;15.23;;
76786;SDS011;65739;51.482;5.702;2023-04-08T00:27:00;44.22;;;15.88;;
76786;SDS011;65739;51.482;5.702;2023-04-08T00:29:26;36.05;;;16.23;;
76786;SDS011;65739;51.482;5.702;2023-04-08T00:31:52;35.03;;;17.05;;
76786;SDS011;65739;51.482;5.702;2023-04-08T00:34:18;35.08;;;16.27;;
76786;SDS011;65739;51.482;5.702;2023-04-08T00:36:44;34.08;;;16.70;;
76786;SDS011;65739;51.482;5.702;2023-04-08T00:39:11;40.78;;;16.45;;
76786;SDS011;65739;51.482;5.702;2023-04-08T00:41:37;32.95;;;16.42;;
76786;SDS011;65739;51.482;5.702;2023-04-08T00:44:03;38.78;;;16.77;;
76786;SDS011;65739;51.482;5.702;2023-04-08T00:46:29;34.47;;;17.13;;
76786;SDS011;65739;51.482;5.702;2023-04-08T00:49:00;35.65;;;17.08;;
76786;SDS011;65739;51.482;5.702;2023-04-08T00:51:27;46.28;;;18.77;;
76786;SDS011;65739;51.482;5.702;2023-04-08T00:53:53;41.72;;;16.77;;
76786;SDS011;65739;51.482;5.702;2023-04-08T00:56:20;41.42;;;18.52;;
76786;SDS011;65739;51.482;5.702;2023-04-08T00:58:46;35.05;;;17.70;;
76786;SDS011;65739;51.482;5.702;2023-04-08T01:01:18;46.50;;;19.13;;
76786;SDS011;65739;51.482;5.702;2023-04-08T01:04:05;45.58;;;19.88;;
76786;SDS011;65739;51.482;5.702;2023-04-08T01:06:49;42.03;;;18.45;;
76786;SDS011;65739;51.482;5.702;2023-04-08T01:09:27;48.97;;;19.42;;
76786;SDS011;65739;51.482;5.702;2023-04-08T01:11:57;36.42;;;19.25;;
76786;SDS011;65739;51.482;5.702;2023-04-08T01:14:26;48.63;;;20.27;;
76786;SDS011;65739;51.482;5.702;2023-04-08T01:16:54;46.65;;;21.38;;
76786;SDS011;65739;51.482;5.702;2023-04-08T01:19:26;50.30;;;20.67;;
76786;SDS011;65739;51.482;5.702;2023-04-08T01:21:57;44.25;;;20.67;;
76786;SDS011;65739;51.482;5.702;2023-04-08T01:24:30;58.17;;;21.38;;
76786;SDS011;65739;51.482;5.702;2023-04-08T01:27:00;50.17;;;21.25;;
76786;SDS011;65739;51.482;5.702;2023-04-08T01:29:27;52.33;;;21.55;;
76786;SDS011;65739;51.482;5.702;2023-04-08T01:31:54;47.47;;;21.15;;
76786;SDS011;65739;51.482;5.702;2023-04-08T01:34:21;46.03;;;21.33;;
76786;SDS011;65739;51.482;5.702;2023-04-08T01:36:49;50.58;;;21.20;;
76786;SDS011;65739;51.482;5.702;2023-04-08T01:39:15;42.00;;;22.05;;
76786;SDS011;65739;51.482;5.702;2023-04-08T01:41:45;54.58;;;21.77;;
76786;SDS011;65739;51.482;5.702;2023-04-08T01:44:11;47.85;;;22.02;;
76786;SDS011;65739;51.482;5.702;2023-04-08T01:46:39;50.55;;;21.88;;
76786;SDS011;65739;51.482;5.702;2023-04-08T01:49:06;45.03;;;20.98;;
76786;SDS011;65739;51.482;5.702;2023-04-08T01:51:33;55.67;;;21.15;;
76786;SDS011;65739;51.482;5.702;2023-04-08T01:54:00;55.63;;;21.92;;
76786;SDS011;65739;51.482;5.702;2023-04-08T01:56:26;53.45;;;22.38;;
76786;SDS011;65739;51.482;5.702;2023-04-08T01:58:57;52.00;;;21.35;;
76786;SDS011;65739;51.482;5.702;2023-04-08T02:01:24;57.58;;;23.23;;
76786;SDS011;65739;51.482;5.702;2023-04-08T02:03:53;59.80;;;21.92;;
76786;SDS011;65739;51.482;5.702;2023-04-08T02:06:21;49.45;;;22.17;;
76786;SDS011;65739;51.482;5.702;2023-04-08T02:08:48;56.88;;;21.80;;
76786;SDS011;65739;51.482;5.702;2023-04-08T02:11:13;57.47;;;21.40;;
76786;SDS011;65739;51.482;5.702;2023-04-08T02:13:39;57.97;;;22.10;;
76786;SDS011;65739;51.482;5.702;2023-04-08T02:16:08;61.67;;;21.80;;
76786;SDS011;65739;51.482;5.702;2023-04-08T02:18:49;58.10;;;22.80;;
76786;SDS011;65739;51.482;5.702;2023-04-08T02:21:26;49.50;;;21.83;;
76786;SDS011;65739;51.482;5.702;2023-04-08T02:23:58;52.50;;;22.08;;
76786;SDS011;65739;51.482;5.702;2023-04-08T02:26:27;54.58;;;22.60;;
76786;SDS011;65739;51.482;5.702;2023-04-08T02:28:53;59.95;;;21.90;;
76786;SDS011;65739;51.482;5.702;2023-04-08T02:31:20;71.10;;;23.17;;
76786;SDS011;65739;51.482;5.702;2023-04-08T02:33:47;64.80;;;22.65;;
76786;SDS011;65739;51.482;5.702;2023-04-08T02:36:14;57.53;;;23.58;;
76786;SDS011;65739;51.482;5.702;2023-04-08T02:38:40;57.55;;;22.80;;
76786;SDS011;65739;51.482;5.702;2023-04-08T02:41:06;68.70;;;24.50;;
76786;SDS011;65739;51.482;5.702;2023-04-08T02:43:31;67.82;;;24.90;;
76786;SDS011;65739;51.482;5.702;2023-04-08T02:45:58;63.92;;;23.35;;
76786;SDS011;65739;51.482;5.702;2023-04-08T02:48:26;62.80;;;24.10;;
76786;SDS011;65739;51.482;5.702;2023-04-08T02:50:52;56.15;;;23.98;;
76786;SDS011;65739;51.482;5.702;2023-04-08T02:53:18;65.25;;;25.60;;
76786;SDS011;65739;51.482;5.702;2023-04-08T02:55:43;67.85;;;25.20;;
76786;SDS011;65739;51.482;5.702;2023-04-08T02:58:09;61.42;;;25.15;;
76786;SDS011;65739;51.482;5.702;2023-04-08T03:00:35;63.95;;;24.83;;
76786;SDS011;65739;51.482;5.702;2023-04-08T03:03:03;60.05;;;23.98;;
76786;SDS011;65739;51.482;5.702;2023-04-08T03:05:29;66.45;;;25.52;;
76786;SDS011;65739;51.482;5.702;2023-04-08T03:07:54;73.10;;;25.00;;
76786;SDS011;65739;51.482;5.702;2023-04-08T03:10:20;71.28;;;26.15;;
76786;SDS011;65739;51.482;5.702;2023-04-08T03:12:46;70.57;;;25.20;;
76786;SDS011;65739;51.482;5.702;2023-04-08T03:15:11;71.38;;;24.20;;
76786;SDS011;65739;51.482;5.702;2023-04-08T03:17:37;69.43;;;25.08;;
76786;SDS011;65739;51.482;5.702;2023-04-08T03:20:02;69.32;;;26.17;;
76786;SDS011;65739;51.482;5.702;2023-04-08T03:22:31;69.70;;;26.25;;
76786;SDS011;65739;51.482;5.702;2023-04-08T03:24:57;67.10;;;25.30;;
76786;SDS011;65739;51.482;5.702;2023-04-08T03:27:23;80.18;;;26.80;;
76786;SDS011;65739;51.482;5.702;2023-04-08T03:29:49;76.53;;;25.25;;
76786;SDS011;65739;51.482;5.702;2023-04-08T03:32:15;65.72;;;26.15;;
76786;SDS011;65739;51.482;5.702;2023-04-08T03:34:40;62.80;;;26.42;;
76786;SDS011;65739;51.482;5.702;2023-04-08T03:37:06;68.20;;;25.10;;
76786;SDS011;65739;51.482;5.702;2023-04-08T03:39:32;67.82;;;25.63;;
76786;SDS011;65739;51.482;5.702;2023-04-08T03:41:57;67.20;;;25.65;;
76786;SDS011;65739;51.482;5.702;2023-04-08T03:44:24;65.82;;;24.67;;
76786;SDS011;65739;51.482;5.702;2023-04-08T03:46:50;67.95;;;24.88;;
76786;SDS011;65739;51.482;5.702;2023-04-08T03:49:16;60.22;;;25.35;;
76786;SDS011;65739;51.482;5.702;2023-04-08T03:51:42;62.95;;;24.48;;
76786;SDS011;65739;51.482;5.702;2023-04-08T03:54:07;52.88;;;23.75;;
76786;SDS011;65739;51.482;5.702;2023-04-08T03:56:33;70.53;;;25.33;;
76786;SDS011;65739;51.482;5.702;2023-04-08T03:58:58;67.57;;;25.77;;
76786;SDS011;65739;51.482;5.702;2023-04-08T04:01:24;61.03;;;23.63;;
76786;SDS011;65739;51.482;5.702;2023-04-08T04:03:50;63.47;;;24.20;;
76786;SDS011;65739;51.482;5.702;2023-04-08T04:06:15;65.38;;;24.02;;
76786;SDS011;65739;51.482;5.702;2023-04-08T04:08:41;66.05;;;24.65;;
76786;SDS011;65739;51.482;5.702;2023-04-08T04:11:06;67.65;;;24.23;;
76786;SDS011;65739;51.482;5.702;2023-04-08T04:13:32;62.10;;;24.33;;
76786;SDS011;65739;51.482;5.702;2023-04-08T04:15:57;55.42;;;24.40;;
76786;SDS011;65739;51.482;5.702;2023-04-08T04:18:23;74.32;;;25.52;;
76786;SDS011;65739;51.482;5.702;2023-04-08T04:20:48;67.20;;;24.02;;
76786;SDS011;65739;51.482;5.702;2023-04-08T04:23:14;68.95;;;25.48;;
76786;SDS011;65739;51.482;5.702;2023-04-08T04:25:40;63.90;;;26.55;;
76786;SDS011;65739;51.482;5.702;2023-04-08T04:28:06;56.63;;;24.48;;
76786;SDS011;65739;51.482;5.702;2023-04-08T04:30:35;69.85;;;25.83;;
76786;SDS011;65739;51.482;5.702;2023-04-08T04:33:02;64.28;;;26.13;;
76786;SDS011;65739;51.482;5.702;2023-04-08T04:35:28;72.20;;;26.95;;
76786;SDS011;65739;51.482;5.702;2023-04-08T04:37:53;67.60;;;26.20;;
76786;SDS011;65739;51.482;5.702;2023-04-08T04:40:19;64.75;;;25.88;;
76786;SDS011;65739;51.482;5.702;2023-04-08T04:42:44;78.93;;;26.20;;
76786;SDS011;65739;51.482;5.702;2023-04-08T04:45:10;79.38;;;27.50;;
76786;SDS011;65739;51.482;5.702;2023-04-08T04:47:36;89.72;;;26.70;;
76786;SDS011;65739;51.482;5.702;2023-04-08T04:50:02;71.13;;;27.88;;
76786;SDS011;65739;51.482;5.702;2023-04-08T04:52:27;82.32;;;27.80;;
76786;SDS011;65739;51.482;5.702;2023-04-08T04:54:53;88.40;;;28.58;;
76786;SDS011;65739;51.482;5.702;2023-04-08T04:57:18;83.68;;;29.95;;
76786;SDS011;65739;51.482;5.702;2023-04-08T04:59:44;87.70;;;29.02;;
76786;SDS011;65739;51.482;5.702;2023-04-08T05:02:10;74.13;;;28.40;;
76786;SDS011;65739;51.482;5.702;2023-04-08T05:04:35;84.35;;;29.58;;
76786;SDS011;65739;51.482;5.702;2023-04-08T05:07:01;87.25;;;29.75;;
76786;SDS011;65739;51.482;5.702;2023-04-08T05:09:28;82.50;;;29.13;;
76786;SDS011;65739;51.482;5.702;2023-04-08T05:11:53;89.32;;;29.88;;
76786;SDS011;65739;51.482;5.702;2023-04-08T05:14:19;81.28;;;30.15;;
76786;SDS011;65739;51.482;5.702;2023-04-08T05:16:45;88.63;;;29.45;;
76786;SDS011;65739;51.482;5.702;2023-04-08T05:19:10;99.72;;;31.85;;
76786;SDS011;65739;51.482;5.702;2023-04-08T05:21:36;86.22;;;31.33;;
76786;SDS011;65739;51.482;5.702;2023-04-08T05:24:01;87.40;;;32.13;;
76786;SDS011;65739;51.482;5.702;2023-04-08T05:26:27;102.45;;;32.55;;
76786;SDS011;65739;51.482;5.702;2023-04-08T05:28:53;91.00;;;31.67;;
76786;SDS011;65739;51.482;5.702;2023-04-08T05:31:18;93.60;;;31.40;;
76786;SDS011;65739;51.482;5.702;2023-04-08T05:33:44;83.90;;;30.92;;
76786;SDS011;65739;51.482;5.702;2023-04-08T05:36:10;96.45;;;32.45;;
76786;SDS011;65739;51.482;5.702;2023-04-08T05:38:36;86.15;;;31.63;;
76786;SDS011;65739;51.482;5.702;2023-04-08T05:41:02;85.32;;;32.05;;
76786;SDS011;65739;51.482;5.702;2023-04-08T05:43:28;79.10;;;30.55;;
76786;SDS011;65739;51.482;5.702;2023-04-08T05:45:53;84.32;;;30.73;;
76786;SDS011;65739;51.482;5.702;2023-04-08T05:48:20;84.32;;;31.52;;
76786;SDS011;65739;51.482;5.702;2023-04-08T05:50:45;73.32;;;30.05;;
76786;SDS011;65739;51.482;5.702;2023-04-08T05:53:12;86.78;;;32.03;;
76786;SDS011;65739;51.482;5.702;2023-04-08T05:55:38;79.93;;;31.60;;
76786;SDS011;65739;51.482;5.702;2023-04-08T05:58:04;77.95;;;31.60;;
76786;SDS011;65739;51.482;5.702;2023-04-08T06:00:30;83.72;;;31.58;;
76786;SDS011;65739;51.482;5.702;2023-04-08T06:02:56;75.65;;;32.03;;
76786;SDS011;65739;51.482;5.702;2023-04-08T06:05:21;79.47;;;31.67;;
76786;SDS011;65739;51.482;5.702;2023-04-08T06:07:47;74.65;;;31.15;;
76786;SDS011;65739;51.482;5.702;2023-04-08T06:10:12;80.55;;;32.83;;
76786;SDS011;65739;51.482;5.702;2023-04-08T06:12:38;81.68;;;33.45;;
76786;SDS011;65739;51.482;5.702;2023-04-08T06:15:04;71.03;;;30.27;;
76786;SDS011;65739;51.482;5.702;2023-04-08T06:17:31;67.28;;;28.90;;
76786;SDS011;65739;51.482;5.702;2023-04-08T06:19:56;61.75;;;28.85;;
76786;SDS011;65739;51.482;5.702;2023-04-08T06:22:22;64.22;;;29.48;;
76786;SDS011;65739;51.482;5.702;2023-04-08T06:24:47;60.33;;;28.50;;
76786;SDS011;65739;51.482;5.702;2023-04-08T06:27:13;57.08;;;27.95;;
76786;SDS011;65739;51.482;5.702;2023-04-08T06:29:39;56.13;;;27.92;;
76786;SDS011;65739;51.482;5.702;2023-04-08T06:32:05;52.42;;;28.33;;
76786;SDS011;65739;51.482;5.702;2023-04-08T06:34:31;56.28;;;27.02;;
76786;SDS011;65739;51.482;5.702;2023-04-08T06:36:56;54.15;;;27.98;;
76786;SDS011;65739;51.482;5.702;2023-04-08T06:39:22;58.13;;;27.73;;
76786;SDS011;65739;51.482;5.702;2023-04-08T06:41:47;56.13;;;29.08;;
76786;SDS011;65739;51.482;5.702;2023-04-08T06:44:13;50.10;;;28.42;;
76786;SDS011;65739;51.482;5.702;2023-04-08T06:46:39;51.85;;;26.90;;
76786;SDS011;65739;51.482;5.702;2023-04-08T06:49:05;52.33;;;27.48;;
76786;SDS011;65739;51.482;5.702;2023-04-08T06:51:31;56.72;;;27.10;;
76786;SDS011;65739;51.482;5.702;2023-04-08T06:53:57;49.47;;;26.98;;
76786;SDS011;65739;51.482;5.702;2023-04-08T06:56:22;47.22;;;26.83;;
76786;SDS011;65739;51.482;5.702;2023-04-08T06:58:50;44.33;;;26.52;;
76786;SDS011;65739;51.482;5.702;2023-04-08T07:01:18;40.95;;;23.35;;
76786;SDS011;65739;51.482;5.702;2023-04-08T07:03:44;38.72;;;22.67;;
76786;SDS011;65739;51.482;5.702;2023-04-08T07:06:09;32.00;;;20.83;;
76786;SDS011;65739;51.482;5.702;2023-04-08T07:08:35;31.10;;;19.98;;
76786;SDS011;65739;51.482;5.702;2023-04-08T07:11:01;33.10;;;20.27;;
76786;SDS011;65739;51.482;5.702;2023-04-08T07:13:27;34.88;;;20.45;;
76786;SDS011;65739;51.482;5.702;2023-04-08T07:15:53;34.03;;;20.85;;
76786;SDS011;65739;51.482;5.702;2023-04-08T07:18:19;34.75;;;20.85;;
76786;SDS011;65739;51.482;5.702;2023-04-08T07:20:49;32.47;;;20.30;;
76786;SDS011;65739;51.482;5.702;2023-04-08T07:23:17;33.17;;;21.58;;
76786;SDS011;65739;51.482;5.702;2023-04-08T07:25:42;39.08;;;21.23;;
76786;SDS011;65739;51.482;5.702;2023-04-08T07:28:08;30.83;;;19.90;;
76786;SDS011;65739;51.482;5.702;2023-04-08T07:30:33;34.50;;;19.85;;
76786;SDS011;65739;51.482;5.702;2023-04-08T07:32:59;30.85;;;18.98;;
76786;SDS011;65739;51.482;5.702;2023-04-08T07:35:25;31.45;;;19.60;;
76786;SDS011;65739;51.482;5.702;2023-04-08T07:37:50;32.60;;;18.58;;
76786;SDS011;65739;51.482;5.702;2023-04-08T07:40:16;30.25;;;18.85;;
76786;SDS011;65739;51.482;5.702;2023-04-08T07:42:42;27.10;;;18.65;;
76786;SDS011;65739;51.482;5.702;2023-04-08T07:45:08;27.98;;;18.25;;
76786;SDS011;65739;51.482;5.702;2023-04-08T07:47:34;28.35;;;19.75;;
76786;SDS011;65739;51.482;5.702;2023-04-08T07:50:00;29.70;;;18.13;;
76786;SDS011;65739;51.482;5.702;2023-04-08T07:52:26;30.27;;;18.00;;
76786;SDS011;65739;51.482;5.702;2023-04-08T07:54:53;27.50;;;17.05;;
76786;SDS011;65739;51.482;5.702;2023-04-08T07:57:19;28.75;;;18.05;;
76786;SDS011;65739;51.482;5.702;2023-04-08T07:59:45;28.08;;;17.67;;
76786;SDS011;65739;51.482;5.702;2023-04-08T08:02:10;26.73;;;18.00;;
76786;SDS011;65739;51.482;5.702;2023-04-08T08:04:36;28.42;;;16.90;;
76786;SDS011;65739;51.482;5.702;2023-04-08T08:07:01;27.73;;;18.20;;
76786;SDS011;65739;51.482;5.702;2023-04-08T08:09:27;26.65;;;17.38;;
76786;SDS011;65739;51.482;5.702;2023-04-08T08:11:52;24.67;;;17.05;;
76786;SDS011;65739;51.482;5.702;2023-04-08T08:14:18;26.73;;;17.65;;
76786;SDS011;65739;51.482;5.702;2023-04-08T08:16:44;27.05;;;17.45;;
76786;SDS011;65739;51.482;5.702;2023-04-08T08:19:09;27.20;;;17.08;;
76786;SDS011;65739;51.482;5.702;2023-04-08T08:21:36;29.83;;;18.08;;
76786;SDS011;65739;51.482;5.702;2023-04-08T08:24:02;25.17;;;17.05;;
76786;SDS011;65739;51.482;5.702;2023-04-08T08:26:27;25.85;;;16.75;;
76786;SDS011;65739;51.482;5.702;2023-04-08T08:28:53;27.17;;;17.50;;
76786;SDS011;65739;51.482;5.702;2023-04-08T08:31:18;25.67;;;16.77;;
76786;SDS011;65739;51.482;5.702;2023-04-08T08:33:44;23.60;;;16.75;;
76786;SDS011;65739;51.482;5.702;2023-04-08T08:36:10;25.80;;;17.20;;
76786;SDS011;65739;51.482;5.702;2023-04-08T08:38:36;26.05;;;16.38;;
76786;SDS011;65739;51.482;5.702;2023-04-08T08:41:01;23.60;;;16.63;;
76786;SDS011;65739;51.482;5.702;2023-04-08T08:43:28;23.83;;;17.30;;
76786;SDS011;65739;51.482;5.702;2023-04-08T08:45:57;22.15;;;15.90;;
76786;SDS011;65739;51.482;5.702;2023-04-08T08:48:23;22.95;;;16.00;;
76786;SDS011;65739;51.482;5.702;2023-04-08T08:50:49;23.80;;;15.60;;
76786;SDS011;65739;51.482;5.702;2023-04-08T08:53:15;24.27;;;16.38;;
76786;SDS011;65739;51.482;5.702;2023-04-08T08:55:40;26.52;;;16.52;;
76786;SDS011;65739;51.482;5.702;2023-04-08T08:58:06;23.08;;;17.00;;
76786;SDS011;65739;51.482;5.702;2023-04-08T09:00:38;23.98;;;16.60;;
76786;SDS011;65739;51.482;5.702;2023-04-08T09:03:18;22.48;;;16.38;;
76786;SDS011;65739;51.482;5.702;2023-04-08T09:05:56;26.45;;;17.10;;
76786;SDS011;65739;51.482;5.702;2023-04-08T09:11:09;26.98;;;17.23;;
76786;SDS011;65739;51.482;5.702;2023-04-08T09:13:36;27.88;;;17.25;;
76786;SDS011;65739;51.482;5.702;2023-04-08T09:16:03;28.20;;;17.40;;
76786;SDS011;65739;51.482;5.702;2023-04-08T09:18:30;32.70;;;19.70;;
76786;SDS011;65739;51.482;5.702;2023-04-08T09:21:00;26.52;;;19.17;;
76786;SDS011;65739;51.482;5.702;2023-04-08T09:23:43;30.05;;;19.55;;
76786;SDS011;65739;51.482;5.702;2023-04-08T09:26:10;28.63;;;18.95;;
76786;SDS011;65739;51.482;5.702;2023-04-08T09:28:37;28.55;;;18.50;;
76786;SDS011;65739;51.482;5.702;2023-04-08T09:33:47;27.60;;;18.25;;
76786;SDS011;65739;51.482;5.702;2023-04-08T09:36:20;31.88;;;18.80;;
76786;SDS011;65739;51.482;5.702;2023-04-08T09:38:46;26.17;;;17.35;;
76786;SDS011;65739;51.482;5.702;2023-04-08T09:41:12;32.90;;;18.75;;
76786;SDS011;65739;51.482;5.702;2023-04-08T09:43:47;27.20;;;18.40;;
76786;SDS011;65739;51.482;5.702;2023-04-08T09:46:19;26.45;;;18.38;;
76786;SDS011;65739;51.482;5.702;2023-04-08T09:48:55;26.52;;;18.08;;
76786;SDS011;65739;51.482;5.702;2023-04-08T09:51:44;25.65;;;17.63;;
76786;SDS011;65739;51.482;5.702;2023-04-08T09:54:17;27.33;;;19.33;;
76786;SDS011;65739;51.482;5.702;2023-04-08T09:57:00;28.27;;;18.25;;
76786;SDS011;65739;51.482;5.702;2023-04-08T09:59:34;25.85;;;18.17;;
76786;SDS011;65739;51.482;5.702;2023-04-08T10:02:04;28.23;;;19.23;;
76786;SDS011;65739;51.482;5.702;2023-04-08T10:07:03;26.30;;;17.42;;
76786;SDS011;65739;51.482;5.702;2023-04-08T10:09:31;27.08;;;18.98;;
76786;SDS011;65739;51.482;5.702;2023-04-08T10:11:58;25.98;;;18.88;;
76786;SDS011;65739;51.482;5.702;2023-04-08T10:14:25;28.65;;;20.25;;
76786;SDS011;65739;51.482;5.702;2023-04-08T10:17:22;25.13;;;18.25;;
76786;SDS011;65739;51.482;5.702;2023-04-08T10:19:54;26.45;;;19.33;;
76786;SDS011;65739;51.482;5.702;2023-04-08T10:27:57;25.10;;;17.67;;
76786;SDS011;65739;51.482;5.702;2023-04-08T10:32:52;23.58;;;17.55;;
76786;SDS011;65739;51.482;5.702;2023-04-08T10:35:30;23.85;;;17.17;;
76786;SDS011;65739;51.482;5.702;2023-04-08T10:37:57;23.17;;;17.90;;
76786;SDS011;65739;51.482;5.702;2023-04-08T10:40:23;24.58;;;17.13;;
76786;SDS011;65739;51.482;5.702;2023-04-08T10:42:58;25.50;;;17.67;;
76786;SDS011;65739;51.482;5.702;2023-04-08T10:45:24;22.10;;;16.77;;
76786;SDS011;65739;51.482;5.702;2023-04-08T10:47:50;23.10;;;17.77;;
76786;SDS011;65739;51.482;5.702;2023-04-08T10:50:17;24.30;;;17.73;;
76786;SDS011;65739;51.482;5.702;2023-04-08T10:52:51;22.23;;;17.15;;
76786;SDS011;65739;51.482;5.702;2023-04-08T10:55:21;20.58;;;15.98;;
76786;SDS011;65739;51.482;5.702;2023-04-08T10:57:48;21.52;;;16.25;;
76786;SDS011;65739;51.482;5.702;2023-04-08T11:00:18;19.92;;;16.83;;
76786;SDS011;65739;51.482;5.702;2023-04-08T11:03:03;23.50;;;16.05;;
76786;SDS011;65739;51.482;5.702;2023-04-08T11:05:30;21.13;;;16.70;;
76786;SDS011;65739;51.482;5.702;2023-04-08T11:07:57;21.23;;;16.95;;
76786;SDS011;65739;51.482;5.702;2023-04-08T11:10:23;20.52;;;15.88;;
76786;SDS011;65739;51.482;5.702;2023-04-08T11:12:50;22.25;;;16.90;;
76786;SDS011;65739;51.482;5.702;2023-04-08T11:15:15;19.75;;;15.60;;
76786;SDS011;65739;51.482;5.702;2023-04-08T11:17:42;21.27;;;16.50;;
76786;SDS011;65739;51.482;5.702;2023-04-08T11:20:08;20.73;;;15.95;;
76786;SDS011;65739;51.482;5.702;2023-04-08T11:22:34;19.73;;;16.23;;
76786;SDS011;65739;51.482;5.702;2023-04-08T11:25:00;20.50;;;15.98;;
76786;SDS011;65739;51.482;5.702;2023-04-08T11:27:26;20.58;;;15.77;;
76786;SDS011;65739;51.482;5.702;2023-04-08T11:29:55;18.35;;;15.65;;
76786;SDS011;65739;51.482;5.702;2023-04-08T11:32:21;19.95;;;16.40;;
76786;SDS011;65739;51.482;5.702;2023-04-08T11:34:47;20.23;;;16.75;;
76786;SDS011;65739;51.482;5.702;2023-04-08T11:37:13;20.17;;;16.80;;
76786;SDS011;65739;51.482;5.702;2023-04-08T11:39:43;21.75;;;16.08;;
76786;SDS011;65739;51.482;5.702;2023-04-08T11:42:25;20.38;;;16.00;;
76786;SDS011;65739;51.482;5.702;2023-04-08T11:44:54;19.42;;;16.42;;
76786;SDS011;65739;51.482;5.702;2023-04-08T11:47:20;21.70;;;15.52;;
76786;SDS011;65739;51.482;5.702;2023-04-08T11:49:46;18.88;;;15.32;;
76786;SDS011;65739;51.482;5.702;2023-04-08T11:52:12;17.88;;;14.60;;
76786;SDS011;65739;51.482;5.702;2023-04-08T11:54:42;17.42;;;14.27;;
76786;SDS011;65739;51.482;5.702;2023-04-08T11:57:08;18.35;;;15.18;;
76786;SDS011;65739;51.482;5.702;2023-04-08T11:59:34;17.33;;;14.02;;
76786;SDS011;65739;51.482;5.702;2023-04-08T12:02:01;17.92;;;14.38;;
76786;SDS011;65739;51.482;5.702;2023-04-08T12:04:27;20.15;;;16.88;;
76786;SDS011;65739;51.482;5.702;2023-04-08T12:06:52;19.52;;;16.00;;
76786;SDS011;65739;51.482;5.702;2023-04-08T12:09:18;20.67;;;16.85;;
76786;SDS011;65739;51.482;5.702;2023-04-08T12:11:43;22.95;;;17.10;;
76786;SDS011;65739;51.482;5.702;2023-04-08T12:14:09;20.90;;;16.45;;
76786;SDS011;65739;51.482;5.702;2023-04-08T12:16:35;21.33;;;15.73;;
76786;SDS011;65739;51.482;5.702;2023-04-08T12:19:00;16.60;;;12.95;;
76786;SDS011;65739;51.482;5.702;2023-04-08T12:21:26;17.65;;;12.68;;
76786;SDS011;65739;51.482;5.702;2023-04-08T12:23:55;15.07;;;13.48;;
76786;SDS011;65739;51.482;5.702;2023-04-08T12:26:20;19.67;;;14.50;;
76786;SDS011;65739;51.482;5.702;2023-04-08T12:28:46;17.45;;;14.20;;
76786;SDS011;65739;51.482;5.702;2023-04-08T12:31:11;13.68;;;11.90;;
76786;SDS011;65739;51.482;5.702;2023-04-08T12:33:37;14.38;;;11.63;;
76786;SDS011;65739;51.482;5.702;2023-04-08T12:36:02;14.60;;;13.00;;
76786;SDS011;65739;51.482;5.702;2023-04-08T12:38:28;17.42;;;13.73;;
76786;SDS011;65739;51.482;5.702;2023-04-08T12:40:54;15.65;;;12.88;;
76786;SDS011;65739;51.482;5.702;2023-04-08T12:43:20;16.13;;;13.57;;
76786;SDS011;65739;51.482;5.702;2023-04-08T12:45:46;15.50;;;13.80;;
76786;SDS011;65739;51.482;5.702;2023-04-08T12:48:12;17.10;;;14.30;;
76786;SDS011;65739;51.482;5.702;2023-04-08T12:50:38;16.15;;;13.90;;
76786;SDS011;65739;51.482;5.702;2023-04-08T12:53:04;15.20;;;12.75;;
76786;SDS011;65739;51.482;5.702;2023-04-08T12:55:29;14.70;;;13.00;;
76786;SDS011;65739;51.482;5.702;2023-04-08T12:57:55;13.77;;;11.93;;
76786;SDS011;65739;51.482;5.702;2023-04-08T13:00:21;14.73;;;13.05;;
76786;SDS011;65739;51.482;5.702;2023-04-08T13:02:46;14.35;;;11.80;;
76786;SDS011;65739;51.482;5.702;2023-04-08T13:05:12;14.27;;;12.13;;
76786;SDS011;65739;51.482;5.702;2023-04-08T13:07:38;14.88;;;12.00;;
76786;SDS011;65739;51.482;5.702;2023-04-08T13:10:03;15.27;;;11.85;;
76786;SDS011;65739;51.482;5.702;2023-04-08T13:12:30;13.80;;;11.63;;
76786;SDS011;65739;51.482;5.702;2023-04-08T13:14:56;16.05;;;11.55;;
76786;SDS011;65739;51.482;5.702;2023-04-08T13:17:22;13.80;;;11.07;;
76786;SDS011;65739;51.482;5.702;2023-04-08T13:19:48;15.93;;;12.63;;
76786;SDS011;65739;51.482;5.702;2023-04-08T13:22:14;18.05;;;12.68;;
76786;SDS011;65739;51.482;5.702;2023-04-08T13:24:40;15.18;;;11.60;;
76786;SDS011;65739;51.482;5.702;2023-04-08T13:27:06;14.85;;;12.07;;
76786;SDS011;65739;51.482;5.702;2023-04-08T13:29:31;16.95;;;12.32;;
76786;SDS011;65739;51.482;5.702;2023-04-08T13:31:57;18.55;;;12.20;;
76786;SDS011;65739;51.482;5.702;2023-04-08T13:34:23;16.58;;;12.93;;
76786;SDS011;65739;51.482;5.702;2023-04-08T13:36:48;14.43;;;12.43;;
76786;SDS011;65739;51.482;5.702;2023-04-08T13:39:14;16.77;;;11.70;;
76786;SDS011;65739;51.482;5.702;2023-04-08T13:41:39;16.42;;;11.90;;
76786;SDS011;65739;51.482;5.702;2023-04-08T13:44:05;14.98;;;11.30;;
76786;SDS011;65739;51.482;5.702;2023-04-08T13:46:31;13.18;;;11.15;;
76786;SDS011;65739;51.482;5.702;2023-04-08T13:48:56;11.65;;;9.40;;
76786;SDS011;65739;51.482;5.702;2023-04-08T13:51:22;13.27;;;10.18;;
76786;SDS011;65739;51.482;5.702;2023-04-08T13:53:47;11.98;;;9.15;;
76786;SDS011;65739;51.482;5.702;2023-04-08T13:56:13;12.40;;;9.23;;
76786;SDS011;65739;51.482;5.702;2023-04-08T13:58:38;12.93;;;8.68;;
76786;SDS011;65739;51.482;5.702;2023-04-08T14:01:04;12.30;;;8.50;;
76786;SDS011;65739;51.482;5.702;2023-04-08T14:03:30;11.68;;;9.10;;
76786;SDS011;65739;51.482;5.702;2023-04-08T14:05:56;13.15;;;8.60;;
76786;SDS011;65739;51.482;5.702;2023-04-08T14:08:22;11.55;;;8.75;;
76786;SDS011;65739;51.482;5.702;2023-04-08T14:10:51;12.13;;;8.50;;
76786;SDS011;65739;51.482;5.702;2023-04-08T14:13:20;12.20;;;8.27;;
76786;SDS011;65739;51.482;5.702;2023-04-08T14:15:45;11.75;;;8.00;;
76786;SDS011;65739;51.482;5.702;2023-04-08T14:18:12;9.48;;;6.60;;
76786;SDS011;65739;51.482;5.702;2023-04-08T14:20:38;11.07;;;6.88;;
76786;SDS011;65739;51.482;5.702;2023-04-08T14:23:03;12.48;;;6.97;;
76786;SDS011;65739;51.482;5.702;2023-04-08T14:25:29;13.27;;;7.65;;
76786;SDS011;65739;51.482;5.702;2023-04-08T14:27:54;10.98;;;7.50;;
76786;SDS011;65739;51.482;5.702;2023-04-08T14:30:21;12.65;;;8.18;;
76786;SDS011;65739;51.482;5.702;2023-04-08T14:32:47;11.82;;;6.68;;
76786;SDS011;65739;51.482;5.702;2023-04-08T14:35:13;9.75;;;7.13;;
76786;SDS011;65739;51.482;5.702;2023-04-08T14:37:39;8.88;;;6.70;;